• Join FlightAware (Why Join?)
  • Login
  • US Flag 
02:26AM EDT


 

Airport Tracker/Info


-or-


 

Live Flight TrackerFlight Track Log ✈ N3191U ✈ 12-Jan-2014 ✈ KHOU - KCLL

Flight Track Log - Related Links

Times and Time Zones

All times are in EST time to prevent confusion due to time zone crossing. See the N3191U flight status page for this flight to view local times or setup timezone preferences in your user account.

Time Position Orientation Groundspeed Altitude Reporting Facility
EST Latitude Longitude Course Direction KTS MPH feet Rate Location/Type
09:42AM 29.5225 -95.2931 265° West 93 107 1,500  Level Houston Center
09:43AM 29.5197 -95.3319 265° West 107 123 1,900 180 Climbing Houston Center
09:44AM 29.5267 -95.3639 284° West 111 128 2,000 180 Climbing Houston Center
09:44AM 29.5272 -95.3694 277° West 115 132 2,100 540 Climbing Houston Center
09:45AM 29.5461 -95.3911 315° West 120 138 2,600 540 Climbing Houston Center
09:46AM 29.5744 -95.4125 327° Northwest 117 135 3,200 540 Climbing Houston Center
09:47AM 29.6011 -95.4322 327° Northwest 115 132 3,700 420 Climbing Houston Center
09:47AM 29.6047 -95.4347 329° Northwest 125 144 3,700  Level Houston Center
09:48AM 29.6358 -95.4550 330° Northwest 134 154 3,700  Level Houston Center
09:48AM 29.6344 -95.4514 114° Southeast 132 152 3,700  Level Houston Center
09:49AM 29.6667 -95.4706 333° Northwest 132 152 3,700  Level Houston Center
09:49AM 29.6678 -95.4703 12° North 134 154 3,700 -240 Level Houston Center
09:50AM 29.6981 -95.4908 329° Northwest 131 151 3,500 -120 Descending Houston Center
09:50AM 29.7006 -95.4894 26° Northeast 132 152 3,600 60 Climbing Houston Center
09:51AM 29.7292 -95.5111 327° Northwest 128 147 3,600  Level Houston Center
09:51AM 29.7308 -95.5108 North 129 148 3,600  Level Houston Center
09:52AM 29.7586 -95.5342 324° Northwest 128 147 3,600  Level Houston Center
09:52AM 29.7608 -95.5350 342° North 130 150 3,600  Level Houston Center
09:53AM 29.7906 -95.5639 320° Northwest 129 148 3,600  Level Houston Center
09:53AM 29.7889 -95.5597 115° Southeast 128 147 3,600  Level Houston Center
09:54AM 29.8183 -95.5919 316° Northwest 126 145 3,600  Level Houston Center
09:54AM 29.8156 -95.5864 120° Southeast 127 146 3,600  Level Houston Center
09:55AM 29.8414 -95.6158 315° West 127 146 3,600  Level Houston Center
09:55AM 29.8422 -95.6131 71° East 127 146 3,600  Level Houston Center
09:56AM 29.8714 -95.6458 316° Northwest 126 145 3,600  Level Houston Center
09:56AM 29.8742 -95.6453 10° North 128 147 3,600 60 Level Houston Center
09:57AM 29.9011 -95.6714 320° Northwest 126 145 3,700 180 Climbing Houston Center
09:57AM 29.9019 -95.6703 49° Northeast 128 147 3,800  Climbing Houston Center
09:58AM 29.9303 -95.6944 324° Northwest 128 147 3,700 -120 Descending Houston Center
09:58AM 29.9308 -95.6939 41° Northeast 128 147 3,700  Level Houston Center
09:59AM 29.9606 -95.7172 326° Northwest 130 150 3,700  Level Houston Center
10:00AM 29.9889 -95.7383 327° Northwest 131 151 3,700 -120 Level Houston Center
10:00AM 29.9903 -95.7403 310° West 129 148 3,600 -120 Descending Houston Center
10:01AM 30.0206 -95.7636 326° Northwest 132 152 3,600  Level Houston Center
10:01AM 30.0219 -95.7631 19° North 132 152 3,600  Level Houston Center
10:02AM 30.0519 -95.7864 326° Northwest 129 148 3,600  Level Houston Center
10:02AM 30.0511 -95.7858 150° Southeast 129 148 3,600  Level Houston Center
10:03AM 30.0817 -95.8142 321° Northwest 130 150 3,600  Level Houston Center
10:03AM 30.0800 -95.8117 128° Southeast 131 151 3,600 -120 Level Houston Center
10:04AM 30.1092 -95.8425 318° Northwest 129 148 3,500 -120 Descending Houston Center
10:04AM 30.1064 -95.8394 136° Southeast 130 150 3,500  Level Houston Center
10:05AM 30.1325 -95.8664 318° Northwest 129 148 3,500  Level Houston Center
10:05AM 30.1392 -95.8719 324° Northwest 128 147 3,500 -120 Level Houston Center
10:06AM 30.1644 -95.8964 320° Northwest 130 150 3,400  Descending Houston Center
10:06AM 30.1667 -95.8983 323° Northwest 127 146 3,500  Climbing Houston Center
10:07AM 30.1961 -95.9228 324° Northwest 130 150 3,400 -60 Descending Houston Center
10:08AM 30.2256 -95.9475 324° Northwest 132 152 3,400  Level Houston Center
10:08AM 30.2267 -95.9461 47° Northeast 131 151 3,400 -120 Level Houston Center
10:09AM 30.2525 -95.9683 323° Northwest 133 153 3,300 -120 Descending Houston Center
10:09AM 30.2578 -95.9700 345° North 134 154 3,300 60 Level Houston Center
10:10AM 30.2842 -95.9939 322° Northwest 125 144 3,400 60 Climbing Houston Center
10:10AM 30.2861 -95.9944 346° North 128 147 3,400  Level Houston Center
10:11AM 30.3122 -96.0194 320° Northwest 123 142 3,400  Level Houston Center
10:12AM 30.3325 -96.0439 314° West 121 139 3,400  Level Houston Center
10:13AM 30.3400 -96.0503 324° Northwest 125 144 3,400  Level Houston Center
10:13AM 30.3581 -96.0725 313° West 123 142 3,400  Level Houston Center
10:14AM 30.3647 -96.0772 329° Northwest 123 142 3,400  Level Houston Center
10:14AM 30.3900 -96.1028 319° Northwest 122 140 3,400  Level Houston Center
10:15AM 30.3894 -96.1039 240° Southwest 122 140 3,400  Level Houston Center
10:15AM 30.4172 -96.1286 322° Northwest 124 143 3,400 -120 Level Houston Center
10:16AM 30.4192 -96.1267 41° Northeast 124 143 3,300 -180 Descending Houston Center
10:16AM 30.4419 -96.1453 325° Northwest 124 143 3,300  Level Houston Center
10:17AM 30.4486 -96.1492 333° Northwest 126 145 3,300  Level Houston Center
10:17AM 30.4731 -96.1683 326° Northwest 127 146 3,300  Level Houston Center
10:18AM 30.4789 -96.1719 332° Northwest 127 146 3,300  Level Houston Center
10:18AM 30.5022 -96.1892 328° Northwest 126 145 3,300 60 Level Houston Center
10:19AM 30.5122 -96.1986 321° Northwest 126 145 3,400 60 Climbing Houston Center
10:19AM 30.5317 -96.2150 324° Northwest 125 144 3,400  Level Houston Center
10:20AM 30.5406 -96.2225 324° Northwest 125 144 3,400 60 Level Houston Center
10:20AM 30.5567 -96.2389 319° Northwest 124 143 3,500 60 Climbing Houston Center
10:21AM 30.5675 -96.2489 322° Northwest 125 144 3,500  Level Houston Center
10:21AM 30.5864 -96.2669 321° Northwest 121 139 3,500  Level Houston Center
10:22AM 30.5939 -96.2733 324° Northwest 123 142 3,500 60 Level Houston Center
10:23AM 30.6200 -96.2992 320° Northwest 122 140 3,600  Climbing Houston Center
10:23AM 30.6408 -96.3167 324° Northwest 123 142 3,600  Level Houston Center
10:24AM 30.6481 -96.3231 323° Northwest 124 143 3,600 60 Level Houston Center
10:25AM 30.6681 -96.3403 323° Northwest 122 140 3,700 60 Climbing Houston Center
10:25AM 30.6761 -96.3458 329° Northwest 123 142 3,700 -120 Level Houston Center
10:26AM 30.6994 -96.3661 323° Northwest 122 140 3,600 -120 Descending Houston Center
10:26AM 30.7053 -96.3692 336° Northwest 125 144 3,600 -240 Level Houston Center
10:27AM 30.7289 -96.3919 320° Northwest 126 145 3,400 -300 Descending Houston Center
10:27AM 30.7339 -96.3933 347° North 127 146 3,300 -420 Descending Houston Center
10:28AM 30.7658 -96.4242 320° Northwest 127 146 2,900 -360 Descending Houston Center
10:29AM 30.7814 -96.4419 316° Northwest 130 150 2,700 -300 Descending Houston Center
10:29AM 30.7933 -96.4544 318° Northwest 131 151 2,600 -240 Descending Houston Center
10:30AM 30.8072 -96.4756 307° West 133 153 2,500  Descending Houston Center
10:30AM 30.8183 -96.4881 316° Northwest 132 152 2,600 240 Climbing Houston Center